Archiv-/Tagesdaten

--Timestamp---	Temp	Chill	HIndex	Humid	Dewpt	 Wind 	HiWind	WindDir	Rain 	Barom	Solar	 ET  	 UV 
--------------	----	-----	------	-----	-----	------	------	-------	-----	-----	-----	-----	----
20100924 00:00	14.7	14.7	14.7	88	12.7	0	5	135	0.0	1009.2	0	0.000	0.0
20100924 00:05	14.6	14.6	14.6	88	12.6	2	6	135	0.0	1009.0	0	0.000	0.0
20100924 00:10	14.6	14.6	14.6	88	12.6	2	6	135	0.0	1008.9	0	0.000	0.0
20100924 00:15	14.6	14.6	14.6	89	12.8	3	5	135	0.0	1008.9	0	0.000	0.0
20100924 00:20	14.4	14.4	14.4	89	12.7	2	5	135	0.0	1008.9	0	0.000	0.0
20100924 00:25	14.3	14.3	14.3	88	12.4	0	3	135	0.0	1008.7	0	0.000	0.0
20100924 00:30	14.2	14.2	14.2	89	12.4	0	2	135	0.0	1008.7	0	0.000	0.0
20100924 00:35	14.1	14.1	14.1	88	12.2	0	0	-100000	0.0	1008.6	0	0.000	0.0
20100924 00:40	13.9	13.9	13.9	88	12.0	0	0	-100000	0.0	1008.7	0	0.000	0.0
20100924 00:45	13.8	13.8	13.8	88	11.9	0	3	135	0.0	1008.6	0	0.000	0.0
20100924 00:50	13.7	13.7	13.7	89	11.9	0	0	-100000	0.0	1008.6	0	0.000	0.0
20100924 00:55	13.6	13.6	13.6	89	11.8	0	0	-100000	0.0	1008.6	0	0.000	0.0
20100924 01:00	13.6	13.6	13.6	89	11.8	0	2	135	0.0	1008.7	0	0.000	0.0
20100924 01:05	13.4	13.4	13.4	90	11.8	0	0	-100000	0.0	1008.4	0	0.000	0.0
20100924 01:10	13.4	13.4	13.4	90	11.8	0	2	135	0.0	1008.4	0	0.000	0.0
20100924 01:15	13.3	13.3	13.3	90	11.7	0	0	-100000	0.0	1008.4	0	0.000	0.0
20100924 01:20	13.2	13.2	13.2	90	11.6	0	0	-100000	0.0	1008.4	0	0.000	0.0
20100924 01:25	13.1	13.1	13.1	90	11.5	0	0	-100000	0.0	1008.4	0	0.000	0.0
20100924 01:30	13.0	13.0	13.0	90	11.4	0	0	-100000	0.0	1008.4	0	0.000	0.0
20100924 01:35	12.9	12.9	12.9	90	11.3	0	0	-100000	0.0	1008.6	0	0.000	0.0
20100924 01:40	12.8	12.8	12.8	90	11.2	0	0	-100000	0.0	1008.5	0	0.000	0.0
20100924 01:45	12.7	12.7	12.7	90	11.1	0	0	-100000	0.0	1008.5	0	0.000	0.0
20100924 01:50	12.6	12.6	12.6	90	11.0	0	2	135	0.0	1008.5	0	0.000	0.0
20100924 01:55	12.5	12.5	12.5	90	10.9	0	3	135	0.0	1008.5	0	0.000	0.0
20100924 02:00	12.3	12.3	12.3	90	10.7	0	0	-100000	0.0	1008.4	0	0.000	0.0
20100924 02:05	12.2	12.2	12.2	90	10.6	0	0	-100000	0.0	1008.4	0	0.000	0.0
20100924 02:10	12.1	12.1	12.1	90	10.5	0	0	-100000	0.0	1008.5	0	0.000	0.0
20100924 02:15	12.0	12.0	12.0	90	10.4	0	0	-100000	0.0	1008.4	0	0.000	0.0
20100924 02:20	11.9	11.9	11.9	90	10.4	0	3	135	0.0	1008.3	0	0.000	0.0
20100924 02:25	11.9	11.9	11.9	90	10.3	2	5	135	0.0	1008.3	0	0.000	0.0
20100924 02:30	11.9	11.9	11.9	91	10.5	2	5	135	0.0	1008.3	0	0.000	0.0
20100924 02:35	12.0	12.0	12.0	91	10.6	0	2	135	0.0	1008.2	0	0.000	0.0
20100924 02:40	11.9	11.9	11.9	91	10.5	0	0	-100000	0.0	1008.2	0	0.000	0.0
20100924 02:45	11.9	11.9	11.9	91	10.5	0	2	135	0.0	1008.2	0	0.000	0.0
20100924 02:50	11.9	11.9	11.9	91	10.5	0	2	135	0.0	1008.0	0	0.000	0.0
20100924 02:55	11.9	11.9	11.9	91	10.5	0	3	135	0.0	1007.9	0	0.000	0.0
20100924 03:00	11.9	11.9	11.9	92	10.7	0	2	135	0.0	1007.8	0	0.000	0.0
20100924 03:05	12.0	12.0	12.0	92	10.7	2	5	135	0.0	1007.7	0	0.000	0.0
20100924 03:10	11.9	11.9	11.9	92	10.7	0	3	135	0.0	1007.7	0	0.000	0.0
20100924 03:15	11.9	11.9	11.9	92	10.7	0	2	135	0.0	1007.6	0	0.000	0.0
20100924 03:20	11.9	11.9	11.9	92	10.6	0	5	135	0.0	1007.7	0	0.000	0.0
20100924 03:25	11.8	11.8	11.8	92	10.6	2	5	135	0.0	1007.7	0	0.000	0.0
20100924 03:30	11.8	11.8	11.8	92	10.6	2	5	135	0.0	1007.6	0	0.000	0.0
20100924 03:35	11.8	11.8	11.8	92	10.6	0	3	135	0.0	1007.5	0	0.000	0.0
20100924 03:40	11.8	11.8	11.8	92	10.5	0	3	135	0.0	1007.6	0	0.000	0.0
20100924 03:45	11.8	11.8	11.8	92	10.5	2	5	135	0.0	1007.5	0	0.000	0.0
20100924 03:50	11.7	11.7	11.7	92	10.5	2	5	135	0.0	1007.6	0	0.000	0.0
20100924 03:55	11.7	11.7	11.7	92	10.4	2	6	135	0.0	1007.6	0	0.000	0.0
20100924 04:00	11.6	11.6	11.6	92	10.4	2	5	135	0.0	1007.6	0	0.000	0.0
20100924 04:05	11.6	11.6	11.6	92	10.3	3	6	135	0.0	1007.4	0	0.000	0.0
20100924 04:10	11.6	11.6	11.6	92	10.3	2	5	135	0.0	1007.3	0	0.000	0.0
20100924 04:15	11.4	11.4	11.4	92	10.2	2	5	135	0.0	1007.3	0	0.000	0.0
20100924 04:20	11.4	11.4	11.4	92	10.1	0	3	135	0.0	1007.2	0	0.000	0.0
20100924 04:25	11.3	11.3	11.3	92	10.0	0	2	135	0.0	1007.2	0	0.000	0.0
20100924 04:30	11.3	11.3	11.3	92	10.0	2	6	135	0.0	1007.1	0	0.000	0.0
20100924 04:35	11.2	11.2	11.2	92	10.0	3	5	135	0.0	1007.1	0	0.000	0.0
20100924 04:40	11.2	11.2	11.2	92	10.0	3	6	135	0.0	1007.1	0	0.000	0.0
20100924 04:45	11.2	11.2	11.2	92	10.0	3	6	135	0.0	1007.1	0	0.000	0.0
20100924 04:50	11.2	11.2	11.2	92	9.9	2	6	135	0.0	1007.0	0	0.000	0.0
20100924 04:55	11.1	11.1	11.1	92	9.9	3	8	135	0.0	1006.9	0	0.000	0.0
20100924 05:00	11.1	11.1	11.1	92	9.8	2	5	135	0.0	1006.8	0	0.000	0.0
20100924 05:05	11.0	11.0	11.0	92	9.7	0	0	-100000	0.0	1006.8	0	0.000	0.0
20100924 05:10	10.9	10.9	10.9	92	9.7	0	5	135	0.0	1006.6	0	0.000	0.0
20100924 05:15	10.9	10.9	10.9	92	9.6	0	3	135	0.0	1006.6	0	0.000	0.0
20100924 05:20	10.8	10.8	10.8	92	9.6	0	2	135	0.0	1006.5	0	0.000	0.0
20100924 05:25	10.8	10.8	10.8	92	9.5	0	3	135	0.0	1006.5	0	0.000	0.0
20100924 05:30	10.7	10.7	10.7	92	9.5	0	5	135	0.0	1006.4	0	0.000	0.0
20100924 05:35	10.7	10.7	10.7	92	9.5	0	3	135	0.0	1006.3	0	0.000	0.0
20100924 05:40	10.7	10.7	10.7	92	9.5	0	5	135	0.0	1006.2	0	0.000	0.0
20100924 05:45	10.7	10.7	10.7	92	9.5	2	5	135	0.0	1006.1	0	0.000	0.0
20100924 05:50	10.7	10.7	10.7	92	9.5	0	3	135	0.0	1006.0	0	0.000	0.0
20100924 05:55	10.7	10.7	10.7	92	9.4	2	5	135	0.0	1006.0	0	0.000	0.0
20100924 06:00	10.7	10.7	10.7	92	9.4	3	5	135	0.0	1006.0	0	0.000	0.0
20100924 06:05	10.7	10.7	10.7	92	9.4	0	2	135	0.0	1006.2	0	0.000	0.0
20100924 06:10	10.7	10.7	10.7	92	9.4	0	3	135	0.0	1006.2	0	0.000	0.0
20100924 06:15	10.6	10.6	10.6	92	9.3	0	2	135	0.0	1006.3	0	0.000	0.0
20100924 06:20	10.5	10.5	10.5	92	9.3	0	3	135	0.0	1006.1	0	0.000	0.0
20100924 06:25	10.4	10.4	10.4	92	9.2	0	5	135	0.0	1006.1	0	0.000	0.0
20100924 06:30	10.4	10.4	10.4	92	9.1	0	3	135	0.0	1006.0	0	0.000	0.0
20100924 06:35	10.4	10.4	10.4	92	9.1	0	3	135	0.0	1005.9	0	0.000	0.0
20100924 06:40	10.3	10.3	10.3	92	9.1	0	5	135	0.0	1005.9	0	0.000	0.0
20100924 06:45	10.3	10.3	10.3	92	9.1	0	5	135	0.0	1005.9	0	0.000	0.0
20100924 06:50	10.3	10.3	10.3	92	9.1	2	5	135	0.0	1005.9	0	0.000	0.0
20100924 06:55	10.4	10.4	10.4	92	9.2	0	5	135	0.0	1005.8	0	0.000	0.0
20100924 07:00	10.4	10.4	10.4	92	9.2	0	3	135	0.0	1005.8	0	0.000	0.0
20100924 07:05	10.4	10.4	10.4	92	9.2	0	2	135	0.0	1006.2	0	0.000	0.0
20100924 07:10	10.4	10.4	10.4	92	9.1	0	2	135	0.0	1006.2	0	0.000	0.0
20100924 07:15	10.3	10.3	10.3	92	9.1	0	0	-100000	0.0	1006.2	0	0.000	0.0
20100924 07:20	10.3	10.3	10.3	92	9.0	0	0	-100000	0.0	1006.1	3	0.000	0.0
20100924 07:25	10.2	10.2	10.2	92	9.0	0	3	135	0.0	1006.1	5	0.000	0.0
20100924 07:30	10.3	10.3	10.3	92	9.0	0	2	135	0.0	1006.1	7	0.000	0.0
20100924 07:35	10.2	10.2	10.2	92	9.0	0	2	135	0.0	1006.0	7	0.000	0.0
20100924 07:40	10.2	10.2	10.2	92	8.9	0	0	-100000	0.0	1006.0	9	0.000	0.0
20100924 07:45	10.1	10.1	10.1	92	8.8	0	0	-100000	0.0	1005.9	11	0.000	0.0
20100924 07:50	10.1	10.1	10.1	92	8.9	0	2	135	0.0	1005.9	13	0.000	0.0
20100924 07:55	10.1	10.1	10.1	92	8.9	0	0	-100000	0.0	1005.8	18	0.000	0.0
20100924 08:00	10.1	10.1	10.1	92	8.9	0	0	-100000	0.0	1005.8	21	0.000	0.0
20100924 08:05	10.2	10.2	10.2	92	8.9	0	2	135	0.0	1006.0	23	0.000	0.0
20100924 08:10	10.2	10.2	10.2	93	9.1	0	0	-100000	0.0	1005.9	25	0.000	0.0
20100924 08:15	10.3	10.3	10.3	93	9.3	0	2	135	0.0	1005.9	26	0.000	0.0
20100924 08:20	10.6	10.6	10.6	93	9.5	0	2	135	0.0	1005.8	27	0.000	0.0
20100924 08:25	10.7	10.7	10.7	93	9.6	0	2	135	0.0	1005.8	29	0.000	0.0
20100924 08:30	10.8	10.8	10.8	93	9.7	2	3	135	0.0	1005.7	31	0.000	0.0
20100924 08:35	10.9	10.9	10.9	93	9.9	0	3	135	0.0	1005.7	32	0.000	0.0
20100924 08:40	11.1	11.1	11.1	93	10.0	0	2	135	0.0	1005.7	33	0.000	0.0
20100924 08:45	11.2	11.2	11.2	93	10.1	0	2	135	0.0	1005.6	34	0.000	0.0
20100924 08:50	11.3	11.3	11.3	92	10.1	2	8	135	0.0	1005.5	35	0.000	0.0
20100924 08:55	11.6	11.6	11.6	92	10.3	2	5	135	0.0	1005.5	38	0.000	0.0
20100924 09:00	11.7	11.7	11.7	92	10.5	0	3	135	0.0	1005.4	40	0.025	0.0
20100924 09:05	11.9	11.9	11.9	92	10.7	2	6	135	0.0	1005.4	42	0.000	0.0
20100924 09:10	12.1	12.1	12.1	92	10.8	0	2	135	0.0	1005.3	47	0.000	0.0
20100924 09:15	12.4	12.4	12.4	92	11.1	2	5	135	0.0	1005.3	51	0.000	0.0
20100924 09:20	12.7	12.7	12.7	91	11.2	3	6	135	0.0	1005.1	56	0.000	0.5
20100924 09:25	12.9	12.9	12.9	91	11.5	2	5	135	0.0	1005.1	62	0.000	0.9
20100924 09:30	13.3	13.3	13.3	90	11.7	3	6	135	0.0	1004.9	66	0.000	0.9
20100924 09:35	13.6	13.6	13.6	89	11.8	3	6	135	0.0	1004.9	67	0.000	1.0
20100924 09:40	14.0	14.0	14.0	88	12.0	2	5	135	0.0	1004.7	69	0.000	1.0
20100924 09:45	14.4	14.4	14.4	86	12.1	2	5	135	0.0	1004.7	69	0.000	1.1
20100924 09:50	14.7	14.7	14.7	85	12.2	0	3	135	0.0	1004.7	70	0.000	1.1
20100924 09:55	15.0	15.0	15.0	85	12.5	2	5	135	0.0	1004.5	71	0.000	1.2
20100924 10:00	15.2	15.2	15.2	83	12.4	2	5	135	0.0	1004.4	75	0.025	1.2
20100924 10:05	15.6	15.6	15.6	82	12.5	0	3	135	0.0	1004.3	82	0.000	1.3
20100924 10:10	15.8	15.8	15.8	81	12.5	0	3	135	0.0	1004.2	88	0.000	1.4
20100924 10:15	16.1	16.1	16.1	79	12.4	2	5	135	0.0	1004.2	97	0.000	1.4
20100924 10:20	16.3	16.3	16.3	78	12.5	0	3	135	0.0	1004.2	102	0.000	1.5
20100924 10:25	16.7	16.7	16.7	78	12.8	2	5	135	0.0	1004.0	99	0.000	1.5
20100924 10:30	16.9	16.9	16.9	78	13.0	2	6	135	0.0	1003.9	92	0.000	1.5
20100924 10:35	17.1	17.1	17.1	77	13.0	0	3	135	0.0	1003.9	87	0.000	1.6
20100924 10:40	17.3	17.3	17.3	77	13.3	2	6	135	0.0	1003.8	83	0.000	1.7
20100924 10:45	17.6	17.6	17.6	76	13.3	3	6	135	0.0	1003.6	83	0.000	1.7
20100924 10:50	17.7	17.7	17.7	72	12.6	2	6	135	0.0	1003.5	83	0.000	1.8
20100924 10:55	17.9	17.9	17.9	69	12.2	2	3	135	0.0	1003.5	85	0.000	1.9
20100924 11:00	18.2	18.2	18.2	70	12.7	0	3	135	0.0	1003.5	92	0.051	2.0
20100924 11:05	18.4	18.4	18.4	70	12.9	0	3	135	0.0	1003.5	103	0.000	2.1
20100924 11:10	18.7	18.7	18.7	71	13.3	2	6	135	0.0	1003.4	115	0.000	2.2
20100924 11:15	18.8	18.8	18.8	69	13.0	5	8	135	0.0	1003.2	130	0.000	2.2
20100924 11:20	18.9	18.9	18.9	68	12.9	2	5	135	0.0	1003.1	517	0.000	2.3
20100924 11:25	19.2	19.2	19.2	67	12.9	2	6	135	0.0	1003.0	516	0.000	3.2
20100924 11:30	19.4	19.4	19.4	64	12.5	5	8	112	0.0	1003.0	558	0.000	3.4
20100924 11:35	19.6	19.6	19.6	65	12.8	3	10	90	0.0	1002.9	543	0.000	3.4
20100924 11:40	19.7	19.7	19.7	65	12.9	3	8	68	0.0	1002.8	504	0.000	3.4
20100924 11:45	19.8	19.8	19.8	66	13.3	0	2	68	0.0	1002.6	440	0.000	3.3
20100924 11:50	20.0	20.0	20.0	65	13.2	3	6	68	0.0	1002.6	467	0.000	3.4
20100924 11:55	20.1	20.1	20.1	64	13.0	2	6	68	0.0	1002.4	497	0.000	3.5
20100924 12:00	20.1	20.1	20.1	63	12.8	2	5	68	0.0	1002.4	523	0.254	3.7
20100924 12:05	20.2	20.2	20.2	63	12.9	2	6	68	0.0	1002.4	521	0.000	3.8
20100924 12:10	20.4	20.4	20.4	62	12.9	3	11	22	0.0	1002.3	516	0.000	3.8
20100924 12:15	20.4	20.4	20.4	62	12.9	3	11	22	0.0	1002.1	504	0.000	3.9
20100924 12:20	20.6	20.6	20.6	60	12.5	5	10	90	0.0	1002.0	511	0.000	3.9
20100924 12:25	20.6	20.6	20.6	62	13.1	2	6	68	0.0	1001.9	552	0.000	4.1
20100924 12:30	20.7	20.7	20.7	61	12.9	3	10	68	0.0	1001.8	558	0.000	4.2
20100924 12:35	20.8	20.8	20.8	62	13.3	5	11	135	0.0	1001.7	586	0.000	4.3
20100924 12:40	21.1	21.1	21.1	62	13.5	3	10	135	0.0	1001.6	579	0.000	4.3
20100924 12:45	21.3	21.3	21.3	60	13.2	3	11	135	0.0	1001.5	541	0.000	4.2
20100924 12:50	21.4	21.4	21.4	59	13.0	5	10	112	0.0	1001.4	480	0.000	4.0
20100924 12:55	21.4	21.4	21.4	58	12.8	3	10	112	0.0	1001.4	551	0.000	4.3
20100924 13:00	21.4	21.4	21.4	57	12.6	3	8	90	0.0	1001.4	573	0.330	4.4
20100924 13:05	21.6	21.6	21.6	57	12.7	2	8	90	0.0	1001.4	487	0.000	4.0
20100924 13:10	21.6	21.6	21.6	56	12.4	5	8	90	0.0	1001.3	494	0.000	4.1
20100924 13:15	21.6	21.6	21.6	57	12.7	2	6	112	0.0	1001.2	491	0.000	4.1
20100924 13:20	21.7	21.7	21.7	57	12.8	3	8	112	0.0	1001.2	552	0.000	4.3
20100924 13:25	21.8	21.8	21.8	56	12.6	2	5	112	0.0	1001.1	612	0.000	4.6
20100924 13:30	21.9	21.9	21.9	55	12.5	6	11	68	0.0	1001.0	617	0.000	4.6
20100924 13:35	21.9	21.9	21.9	55	12.4	5	8	68	0.0	1000.8	547	0.000	4.3
20100924 13:40	22.0	22.0	22.0	55	12.5	3	6	90	0.0	1000.7	557	0.000	4.3
20100924 13:45	22.2	22.2	22.2	53	12.2	5	11	90	0.0	1000.6	588	0.000	4.3
20100924 13:50	22.2	22.2	22.2	51	11.6	5	8	90	0.0	1000.6	497	0.000	4.0
20100924 13:55	22.3	22.3	22.3	53	12.3	2	5	90	0.0	1000.4	580	0.000	4.3
20100924 14:00	22.5	22.5	22.5	52	12.1	3	8	90	0.0	1000.4	654	0.356	4.6
20100924 14:05	22.8	22.8	22.8	48	11.2	5	10	112	0.0	1000.4	687	0.000	4.6
20100924 14:10	23.1	23.1	23.1	47	11.2	3	11	90	0.0	1000.3	671	0.000	4.4
20100924 14:15	23.2	23.2	23.2	43	9.9	5	10	135	0.0	1000.2	568	0.000	4.0
20100924 14:20	23.3	23.3	23.3	43	10.0	3	8	135	0.0	1000.1	603	0.000	4.1
20100924 14:25	23.2	23.2	23.2	43	9.9	3	8	90	0.0	1000.1	639	0.000	4.2
20100924 14:30	23.2	23.2	23.2	44	10.2	3	6	68	0.0	1000.0	626	0.000	4.1
20100924 14:35	23.3	23.3	23.3	44	10.3	3	10	68	0.0	999.9	631	0.000	4.1
20100924 14:40	23.3	23.3	23.3	44	10.3	5	6	45	0.0	999.9	625	0.000	4.0
20100924 14:45	23.3	23.3	23.3	44	10.4	5	10	112	0.0	999.8	547	0.000	3.7
20100924 14:50	23.5	23.5	23.5	44	10.5	3	8	112	0.0	999.7	600	0.000	3.7
20100924 14:55	23.6	23.6	23.6	43	10.3	2	6	112	0.0	999.6	585	0.000	3.6
20100924 15:00	23.9	23.9	25.3	44	10.9	3	10	135	0.0	999.6	544	0.406	3.3
20100924 15:05	23.9	23.9	25.3	41	9.9	5	10	158	0.0	999.6	431	0.000	3.0
20100924 15:10	23.8	23.8	23.8	42	10.1	3	8	90	0.0	999.5	429	0.000	2.8
20100924 15:15	23.6	23.6	23.6	43	10.3	2	6	90	0.0	999.4	402	0.000	2.7
20100924 15:20	23.6	23.6	23.6	43	10.3	2	5	90	0.0	999.4	416	0.000	2.7
20100924 15:25	23.5	23.5	23.5	42	9.8	3	6	90	0.0	999.5	530	0.000	2.9
20100924 15:30	23.4	23.4	23.4	42	9.8	3	8	90	0.0	999.4	538	0.000	2.9
20100924 15:35	23.4	23.4	23.4	43	10.1	3	6	90	0.0	999.4	524	0.000	2.8
20100924 15:40	23.6	23.6	23.6	41	9.5	2	6	90	0.0	999.4	507	0.000	2.7
20100924 15:45	24.0	24.0	25.3	40	9.6	0	5	90	0.0	999.3	477	0.000	2.5
20100924 15:50	24.0	24.0	25.3	41	9.9	3	8	68	0.0	999.2	449	0.000	2.3
20100924 15:55	23.9	23.9	25.3	42	10.2	5	10	68	0.0	999.2	471	0.000	2.3
20100924 16:00	23.8	23.8	23.8	41	9.7	3	8	68	0.0	999.1	467	0.330	2.2
20100924 16:05	23.8	23.8	23.8	41	9.7	3	10	68	0.0	999.2	433	0.000	2.1
20100924 16:10	23.8	23.8	23.8	43	10.5	2	8	45	0.0	999.1	429	0.000	1.9
20100924 16:15	23.9	23.9	25.3	44	10.9	3	10	45	0.0	999.1	438	0.000	1.9
20100924 16:20	23.8	23.8	23.8	46	11.5	5	10	45	0.0	999.0	422	0.000	1.7
20100924 16:25	23.7	23.7	23.7	44	10.7	3	8	68	0.0	999.0	374	0.000	1.6
20100924 16:30	23.6	23.6	23.6	44	10.6	5	8	68	0.0	999.0	344	0.000	1.4
20100924 16:35	23.7	23.7	23.7	44	10.7	3	6	68	0.0	998.9	374	0.000	1.4
20100924 16:40	23.8	23.8	23.8	46	11.5	2	6	68	0.0	998.9	378	0.000	1.3
20100924 16:45	23.8	23.8	23.8	45	11.2	0	3	68	0.0	998.8	295	0.000	1.2
20100924 16:50	23.8	23.8	23.8	48	12.1	2	5	68	0.0	998.9	285	0.000	1.1
20100924 16:55	23.7	23.7	23.7	48	12.0	2	5	68	0.0	998.8	310	0.000	1.1
20100924 17:00	23.6	23.6	23.6	49	12.2	5	16	45	0.0	998.8	295	0.254	1.0
20100924 17:05	23.4	23.4	23.4	51	12.7	3	8	45	0.0	998.9	288	0.000	0.9
20100924 17:10	23.3	23.3	23.3	52	12.9	6	11	22	0.0	998.9	276	0.000	0.8
20100924 17:15	23.3	23.3	23.3	54	13.5	5	11	45	0.0	998.9	261	0.000	0.8
20100924 17:20	23.3	23.3	23.3	53	13.2	3	8	45	0.0	998.9	237	0.000	0.7
20100924 17:25	23.3	23.3	23.3	52	12.9	5	8	0	0.0	998.9	214	0.000	0.6
20100924 17:30	22.9	22.9	22.9	54	13.1	6	11	22	0.0	998.9	130	0.000	0.5
20100924 17:35	22.7	22.7	22.7	54	12.9	3	8	22	0.0	998.9	80	0.000	0.4
20100924 17:40	22.3	22.3	22.3	56	13.1	5	10	22	0.0	999.0	49	0.000	0.0
20100924 17:45	21.8	21.8	21.8	57	12.9	3	8	0	0.0	999.0	42	0.000	0.0
20100924 17:50	21.6	21.6	21.6	58	13.0	0	2	22	0.0	999.0	52	0.000	0.0
20100924 17:55	21.4	21.4	21.4	59	13.0	0	2	22	0.0	999.1	54	0.000	0.0
20100924 18:00	21.2	21.2	21.2	59	12.8	0	2	22	0.0	999.2	49	0.127	0.0
20100924 18:05	21.1	21.1	21.1	60	13.0	0	2	22	0.0	999.2	47	0.000	0.0
20100924 18:10	20.9	20.9	20.9	61	13.1	0	0	-100000	0.0	999.1	42	0.000	0.0
20100924 18:15	20.8	20.8	20.8	62	13.3	0	2	22	0.0	999.1	32	0.000	0.0
20100924 18:20	20.7	20.7	20.7	62	13.1	0	2	22	0.0	999.1	20	0.000	0.0
20100924 18:25	20.4	20.4	20.4	63	13.2	0	0	-100000	0.0	999.1	13	0.000	0.0
20100924 18:30	20.2	20.2	20.2	64	13.2	0	0	-100000	0.0	999.1	9	0.000	0.0
20100924 18:35	20.1	20.1	20.1	64	13.0	0	2	22	0.0	999.2	5	0.000	0.0
20100924 18:40	19.8	19.8	19.8	65	13.1	0	0	-100000	0.0	999.1	1	0.000	0.0
20100924 18:45	19.7	19.7	19.7	65	12.9	0	0	-100000	0.0	999.2	0	0.000	0.0
20100924 18:50	19.6	19.6	19.6	66	13.0	0	5	22	0.0	999.1	0	0.000	0.0
20100924 18:55	19.4	19.4	19.4	68	13.3	0	3	22	0.0	999.0	0	0.000	0.0
20100924 19:00	19.3	19.3	19.3	68	13.2	0	2	22	0.0	998.9	0	0.025	0.0
20100924 19:05	19.2	19.2	19.2	69	13.3	0	2	22	0.0	999.1	0	0.000	0.0
20100924 19:10	19.0	19.0	19.0	69	13.2	0	2	22	0.0	999.4	0	0.000	0.0
20100924 19:15	18.9	18.9	18.9	70	13.3	3	14	22	0.0	999.6	0	0.000	0.0
20100924 19:20	18.7	18.7	18.7	68	12.6	16	34	202	0.0	1000.0	0	0.000	0.0
20100924 19:25	17.8	17.8	17.8	74	13.1	21	39	225	0.0	1000.0	0	0.000	0.0
20100924 19:30	16.8	16.8	16.8	80	13.4	24	42	225	0.4	1000.6	0	0.000	0.0
20100924 19:35	15.8	15.8	15.8	81	12.5	27	48	248	1.4	1001.8	0	0.000	0.0
20100924 19:40	14.7	14.7	14.7	84	12.0	24	43	270	4.2	1002.3	0	0.000	0.0
20100924 19:45	14.1	14.1	14.1	86	11.8	23	39	292	3.2	1001.5	0	0.000	0.0
20100924 19:50	13.6	13.6	13.6	87	11.5	24	42	315	3.2	1001.3	0	0.000	0.0
20100924 19:55	13.3	13.3	13.3	88	11.3	24	40	292	0.6	1001.4	0	0.000	0.0
20100924 20:00	13.1	13.1	13.1	89	11.3	23	32	292	0.2	1001.7	0	0.051	0.0
20100924 20:05	13.1	13.1	13.1	90	11.5	21	39	292	0.0	1001.7	0	0.000	0.0
20100924 20:10	13.1	13.1	13.1	90	11.5	13	31	292	0.0	1002.0	0	0.000	0.0
20100924 20:15	13.1	13.1	13.1	91	11.7	14	29	292	0.0	1002.2	0	0.000	0.0
20100924 20:20	13.2	13.2	13.2	91	11.7	13	24	292	0.0	1002.5	0	0.000	0.0
20100924 20:25	13.2	13.2	13.2	91	11.7	14	23	270	0.0	1002.7	0	0.000	0.0
20100924 20:30	13.2	13.2	13.2	91	11.7	14	27	270	0.0	1003.1	0	0.000	0.0
20100924 20:35	13.2	13.2	13.2	91	11.7	11	23	292	0.4	1003.1	0	0.000	0.0
20100924 20:40	13.1	13.1	13.1	91	11.7	13	27	315	0.6	1002.8	0	0.000	0.0
20100924 20:45	13.1	13.1	13.1	91	11.6	19	35	315	0.4	1002.6	0	0.000	0.0
20100924 20:50	13.0	13.0	13.0	92	11.7	13	29	292	0.2	1003.1	0	0.000	0.0
20100924 20:55	13.0	13.0	13.0	92	11.7	10	19	292	0.0	1003.3	0	0.000	0.0
20100924 21:00	12.9	12.9	12.9	92	11.7	8	16	292	0.0	1003.3	0	0.025	0.0
20100924 21:05	12.9	12.9	12.9	92	11.7	8	18	292	0.2	1003.1	0	0.000	0.0
20100924 21:10	12.9	12.9	12.9	92	11.7	10	16	270	0.0	1003.1	0	0.000	0.0
20100924 21:15	12.8	12.8	12.8	91	11.4	10	19	292	0.2	1003.1	0	0.000	0.0
20100924 21:20	12.5	12.5	12.5	91	11.1	13	27	292	0.0	1003.2	0	0.000	0.0
20100924 21:25	12.3	12.3	12.3	91	10.8	14	27	292	0.0	1003.2	0	0.000	0.0
20100924 21:30	12.2	12.2	12.2	91	10.7	13	23	292	0.0	1003.4	0	0.000	0.0
20100924 21:35	12.1	12.1	12.1	91	10.6	13	19	270	0.0	1003.5	0	0.000	0.0
20100924 21:40	12.0	12.0	12.0	91	10.6	10	18	270	0.0	1003.6	0	0.000	0.0
20100924 21:45	11.9	11.9	11.9	91	10.5	10	23	270	0.0	1003.7	0	0.000	0.0
20100924 21:50	11.9	11.9	11.9	91	10.5	14	24	270	0.0	1003.8	0	0.000	0.0
20100924 21:55	11.8	11.8	11.8	91	10.4	14	23	292	0.0	1003.7	0	0.000	0.0
20100924 22:00	11.8	11.8	11.8	91	10.4	14	24	270	0.0	1003.8	0	0.025	0.0
20100924 22:05	11.7	11.7	11.7	91	10.3	13	23	270	0.0	1003.5	0	0.000	0.0
20100924 22:10	11.7	11.7	11.7	91	10.3	13	21	270	0.2	1003.6	0	0.000	0.0
20100924 22:15	11.7	11.7	11.7	91	10.3	11	24	270	0.0	1003.6	0	0.000	0.0
20100924 22:20	11.6	11.6	11.6	91	10.2	16	24	270	0.2	1003.6	0	0.000	0.0
20100924 22:25	11.6	11.6	11.6	91	10.1	16	29	270	0.0	1003.7	0	0.000	0.0
20100924 22:30	11.5	11.5	11.5	91	10.1	13	21	270	0.0	1003.8	0	0.000	0.0
20100924 22:35	11.4	11.4	11.4	91	10.0	13	26	270	0.0	1003.8	0	0.000	0.0
20100924 22:40	11.4	11.4	11.4	91	10.0	13	26	270	0.2	1003.8	0	0.000	0.0
20100924 22:45	11.3	11.3	11.3	91	9.9	16	26	292	0.0	1003.8	0	0.000	0.0
20100924 22:50	11.3	11.3	11.3	91	9.9	13	23	270	0.0	1004.0	0	0.000	0.0
20100924 22:55	11.3	11.3	11.3	91	9.9	10	21	270	0.0	1003.9	0	0.000	0.0
20100924 23:00	11.3	11.3	11.3	91	9.9	8	14	270	0.0	1003.9	0	0.025	0.0
20100924 23:05	11.4	11.4	11.4	91	10.0	10	26	270	0.0	1003.6	0	0.000	0.0
20100924 23:10	11.4	11.4	11.4	91	10.0	10	18	270	0.0	1003.7	0	0.000	0.0
20100924 23:15	11.4	11.4	11.4	91	10.0	8	14	270	0.0	1003.7	0	0.000	0.0
20100924 23:20	11.4	11.4	11.4	92	10.1	8	13	270	0.2	1003.6	0	0.000	0.0
20100924 23:25	11.4	11.4	11.4	91	10.0	10	18	270	0.0	1003.6	0	0.000	0.0
20100924 23:30	11.4	11.4	11.4	91	10.0	8	19	270	0.0	1003.6	0	0.000	0.0
20100924 23:35	11.3	11.3	11.3	91	9.9	8	14	270	0.0	1003.6	0	0.000	0.0
20100924 23:40	11.3	11.3	11.3	91	9.9	8	13	292	0.0	1003.5	0	0.000	0.0
20100924 23:45	11.3	11.3	11.3	91	9.9	8	16	270	0.0	1003.5	0	0.000	0.0
20100924 23:50	11.3	11.3	11.3	91	9.9	6	11	292	0.0	1003.6	0	0.000	0.0
20100924 23:55	11.3	11.3	11.3	91	9.9	8	18	270	0.0	1003.7	0	0.000	0.0



Please note the license to use and transfer of this data:
http://creativecommons.org/licenses/by-nc-sa/3.0/deed.en

Bitte beachten sie die Lizenz zur Verwertung und Weitergabe der Daten:
http://creativecommons.org/licenses/by-nc-sa/3.0/deed.de

zurück zur Übersicht der Archivdaten (Monats und Tagesdaten)

Cookies helfen bei der Bereitstellung von Inhalten. Durch die Nutzung dieser Seiten erklärst du dich damit einverstanden, dass Cookies auf deinem Rechner gespeichert werden. Weitere Information